Bluff City, AR

11:27 PM CDT on August 26, 2016 (GMT -0500)
Stephens Fire Department | | Change Station

Elev 266 ft 33.41 °N, 93.07 °W | Updated 17 seconds ago

Partly Cloudy
Partly Cloudy
76.6 °F
Feels Like 77 °F
N
0.2
Wind Variable Wind from WSW
Gusts 2.5 mph

Today
High -- | Low -- °F
--% Chance of Precip.
Yesterday
High -- | Low -- °F
Precip. -- in
Pressure 30.02 in
Visibility 10.0 miles
Clouds Few 3900 ft
Heat Index 77 °F
Dew Point 75 °F
Humidity 95%
Rainfall 0.01 in
Snow Depth Not available.
6:42 AM 7:45 PM
Waning Crescent, 28% visible
METAR KADF 270356Z AUTO 00000KT 10SM FEW039 26/25 A3002 RMK AO2 SLP166 T02560250
Pressure 30.02 in
Visibility 10.0 miles
Clouds Few 3900 ft
Heat Index 77 °F
Dew Point 75 °F
Humidity 95%
Rainfall 0.01 in
Snow Depth Not available.
6:42 AM 7:45 PM
Waning Crescent, 28% visible
METAR KADF 270356Z AUTO 00000KT 10SM FEW039 26/25 A3002 RMK AO2 SLP166 T02560250

10-Day Weather Forecast

Almanac

Astronomy

Aug. 26, 2016 Rise Set
Actual Time
Civil Twilight
Nautical Twilight
Astronomical Twilight
Moon
Length of Visible Light
Length of Day
Tomorrow will be .
, % of the Moon is Illuminated

Today's Extremes

State Highs State Lows

Community

WunderPhotos

Upload Photos

1,935,299 photos uploaded!

WunderBlog® & News

Nearby

Air Quality

  Air Quality AQ Index Pollutant
Not available.

Snow Depth

Station Depth Elevation

Earthquake Activity

City Distance Mag. Time & Date
Minimum magnitude displayed is 2.5.

Coastal Water Temperatures

Place Temperature

Stations

Nearby Weather Stations

Station Location Temp. Windchill Dew Point Humidity Wind Precip. Elev Updated Type
                   

Watches & Warnings

There are currently no watches in effect.